Time;durP1;ratioP1;P1;durP2;ratioP2;P2;SDS_P1;SDS_P2;PMS_P1;PMS_P2;Temp;Humidity;BMP_temperature;BMP_pressure;BME280_temperature;BME280_humidity;BME280_pressure;Samples;Min_cycle;Max_cycle;Signal;HPM_P1;HPM_P2
2023/04/24 00:01:42;;;;;;;1.83;1.30;;;11.40;99.90;;;;;;5003142;28;20041;-72
2023/04/24 00:04:10;;;;;;;1.30;0.90;;;11.30;99.90;;;;;;5003483;28;20038;-65
2023/04/24 00:06:37;;;;;;;0.68;0.55;;;11.30;99.90;;;;;;5002332;28;20042;-65
2023/04/24 00:09:03;;;;;;;1.20;0.50;;;11.20;99.90;;;;;;5002787;28;20049;-71
2023/04/24 00:11:29;;;;;;;0.90;0.57;;;11.20;99.90;;;;;;5003012;28;20184;-64
2023/04/24 00:13:56;;;;;;;1.08;0.50;;;10.90;99.90;;;;;;5002961;28;20133;-60
2023/04/24 00:16:22;;;;;;;0.82;0.50;;;10.80;99.90;;;;;;5003053;28;20615;-64
2023/04/24 00:18:48;;;;;;;0.90;0.60;;;10.70;99.90;;;;;;5003321;28;20104;-62
2023/04/24 00:21:17;;;;;;;2.88;0.50;;;10.60;99.90;;;;;;5003024;28;20038;-60
2023/04/24 00:23:43;;;;;;;0.93;0.70;;;10.60;99.90;;;;;;5001454;28;20524;-63
2023/04/24 00:26:09;;;;;;;1.13;0.80;;;10.50;99.90;;;;;;5002825;28;20050;-67
2023/04/24 00:28:35;;;;;;;1.92;0.60;;;10.50;99.90;;;;;;5003006;28;20124;-67
2023/04/24 00:31:00;;;;;;;1.38;0.73;;;10.40;99.90;;;;;;5002344;28;20045;-66
2023/04/24 00:33:26;;;;;;;1.02;0.70;;;10.30;99.90;;;;;;5003082;28;20465;-64
2023/04/24 00:35:52;;;;;;;0.88;0.70;;;10.30;99.90;;;;;;5002369;28;20112;-62
2023/04/24 00:38:18;;;;;;;1.80;0.90;;;10.30;99.90;;;;;;5002332;28;20084;-63
2023/04/24 00:40:43;;;;;;;2.08;1.13;;;10.30;99.90;;;;;;5002314;28;20124;-64
2023/04/24 00:43:09;;;;;;;2.15;1.10;;;10.20;99.90;;;;;;5002605;28;20454;-59
2023/04/24 00:45:35;;;;;;;4.28;1.30;;;10.20;99.90;;;;;;5002666;28;20042;-67
2023/04/24 00:48:01;;;;;;;3.53;1.27;;;10.20;99.90;;;;;;5000752;28;20390;-63
2023/04/24 00:50:28;;;;;;;2.05;1.25;;;10.10;99.90;;;;;;5002576;28;20413;-65
2023/04/24 00:52:54;;;;;;;4.07;1.60;;;10.10;99.90;;;;;;5001773;28;20038;-61
2023/04/24 00:55:20;;;;;;;2.20;1.73;;;10.00;99.90;;;;;;5000564;28;20076;-71
2023/04/24 00:57:46;;;;;;;8.23;1.90;;;10.10;99.90;;;;;;5002539;28;20567;-69
2023/04/24 01:00:13;;;;;;;2.33;1.65;;;9.80;99.90;;;;;;5002556;28;20104;-69
2023/04/24 01:02:45;;;;;;;3.08;2.25;;;9.80;99.90;;;;;;5002466;28;20045;-69
2023/04/24 01:05:12;;;;;;;3.95;2.30;;;9.90;99.90;;;;;;5000876;28;20551;-66
2023/04/24 01:07:39;;;;;;;4.07;2.20;;;9.90;99.90;;;;;;5001285;28;20086;-67
2023/04/24 01:10:05;;;;;;;3.20;2.55;;;9.90;99.90;;;;;;5002240;28;20046;-62
2023/04/24 01:12:32;;;;;;;2.95;2.53;;;9.70;99.90;;;;;;5000999;28;20096;-64
2023/04/24 01:14:58;;;;;;;3.33;2.70;;;9.90;99.90;;;;;;4985042;28;20112;-62
2023/04/24 01:17:23;;;;;;;3.45;2.90;;;9.80;99.90;;;;;;4982817;28;20039;-57
2023/04/24 01:19:49;;;;;;;3.33;2.97;;;9.80;99.90;;;;;;4982428;28;20061;-63
2023/04/24 01:22:16;;;;;;;4.32;3.67;;;9.80;99.90;;;;;;4981995;28;20377;-63
2023/04/24 01:24:42;;;;;;;4.32;3.60;;;9.80;99.90;;;;;;4982862;28;20057;-61
2023/04/24 01:27:09;;;;;;;4.57;3.83;;;9.80;99.90;;;;;;4982222;28;20485;-58
2023/04/24 01:29:35;;;;;;;4.57;4.07;;;9.80;99.90;;;;;;4982990;28;20099;-70
2023/04/24 01:32:02;;;;;;;4.45;3.97;;;9.80;99.90;;;;;;4982915;28;20431;-68
2023/04/24 01:34:28;;;;;;;4.22;3.83;;;9.70;99.90;;;;;;4982478;28;20050;-69
2023/04/24 01:36:54;;;;;;;4.38;3.97;;;9.70;99.90;;;;;;4979964;28;20046;-65
2023/04/24 01:39:20;;;;;;;7.80;3.75;;;9.80;99.90;;;;;;4982434;28;20042;-70
2023/04/24 01:41:46;;;;;;;4.88;4.28;;;9.80;99.90;;;;;;4982189;28;20275;-69
2023/04/24 01:44:12;;;;;;;4.28;3.85;;;10.00;99.90;;;;;;4981909;28;20042;-70
2023/04/24 01:46:38;;;;;;;4.70;3.88;;;9.70;99.90;;;;;;4982270;28;20227;-66
2023/04/24 01:49:03;;;;;;;4.47;4.07;;;9.70;99.90;;;;;;4982702;28;20101;-67
2023/04/24 01:51:29;;;;;;;4.63;3.78;;;9.90;99.90;;;;;;4981865;28;20050;-54
2023/04/24 01:53:55;;;;;;;4.43;3.58;;;9.90;99.90;;;;;;4981821;28;20058;-71
2023/04/24 01:56:22;;;;;;;4.50;3.67;;;9.80;99.90;;;;;;4982458;28;20038;-70
2023/04/24 01:58:50;;;;;;;4.20;3.47;;;9.80;99.90;;;;;;4982128;28;20034;-66
2023/04/24 02:01:20;;;;;;;4.15;3.63;;;9.80;99.90;;;;;;4981517;28;20073;-71
2023/04/24 02:03:46;;;;;;;5.00;3.53;;;9.80;99.90;;;;;;4982286;28;20057;-65
2023/04/24 02:06:12;;;;;;;4.43;3.88;;;9.70;99.90;;;;;;4982128;28;20485;-55
2023/04/24 02:08:37;;;;;;;6.35;4.60;;;9.80;99.90;;;;;;4980708;28;20094;-62
2023/04/24 02:11:03;;;;;;;5.70;5.10;;;9.80;99.90;;;;;;4982222;28;20086;-64
2023/04/24 02:13:29;;;;;;;6.40;5.80;;;9.80;99.90;;;;;;4982272;28;20133;-64
2023/04/24 02:15:54;;;;;;;5.90;5.30;;;9.80;99.90;;;;;;4981936;28;20049;-63
2023/04/24 02:18:22;;;;;;;6.65;5.95;;;9.90;99.90;;;;;;4981991;28;20403;-66
2023/04/24 02:20:48;;;;;;;7.38;6.65;;;9.70;99.90;;;;;;4982342;28;20070;-63
2023/04/24 02:23:14;;;;;;;7.03;6.32;;;9.70;99.90;;;;;;4983952;28;20046;-60
2023/04/24 02:25:41;;;;;;;6.90;6.20;;;9.70;99.90;;;;;;4985010;28;20051;-63
2023/04/24 02:28:06;;;;;;;7.22;6.25;;;9.80;99.90;;;;;;4986062;28;20101;-64
2023/04/24 02:30:32;;;;;;;7.05;6.35;;;9.70;99.90;;;;;;4985427;28;20054;-63
2023/04/24 02:32:58;;;;;;;6.60;5.63;;;9.70;99.90;;;;;;4984794;28;20053;-62
2023/04/24 02:35:23;;;;;;;6.88;5.85;;;9.70;99.90;;;;;;4985779;28;20086;-59
2023/04/24 02:37:49;;;;;;;6.10;5.50;;;9.80;99.90;;;;;;4984734;28;20125;-62
2023/04/24 02:40:15;;;;;;;5.63;5.03;;;9.80;99.90;;;;;;4985282;28;20137;-59
2023/04/24 02:42:40;;;;;;;7.90;5.93;;;9.80;99.90;;;;;;4985121;28;20042;-61
2023/04/24 02:45:06;;;;;;;8.45;7.63;;;9.90;99.90;;;;;;4985132;28;20054;-62
2023/04/24 02:47:32;;;;;;;8.13;7.40;;;9.90;99.90;;;;;;4985125;28;20082;-61
2023/04/24 02:49:58;;;;;;;8.82;8.02;;;9.80;99.90;;;;;;4985025;28;20069;-62
2023/04/24 02:52:23;;;;;;;9.02;8.23;;;10.00;99.90;;;;;;4984687;28;20038;-63
2023/04/24 02:54:49;;;;;;;9.70;8.80;;;9.80;99.90;;;;;;4985039;28;20072;-62
2023/04/24 02:57:15;;;;;;;9.32;8.43;;;9.70;99.90;;;;;;4983426;28;20141;-64
2023/04/24 02:59:40;;;;;;;9.15;8.25;;;9.70;99.90;;;;;;4984910;28;20105;-62
2023/04/24 03:02:06;;;;;;;9.55;8.65;;;9.80;99.90;;;;;;4985018;28;20042;-64
2023/04/24 03:04:31;;;;;;;9.77;8.88;;;9.70;99.90;;;;;;4985025;28;20489;-62
2023/04/24 03:06:57;;;;;;;9.38;8.35;;;9.70;99.90;;;;;;4982542;28;20047;-69
2023/04/24 03:09:23;;;;;;;9.30;8.30;;;9.70;99.90;;;;;;4984817;28;20343;-64
2023/04/24 03:11:49;;;;;;;8.82;8.02;;;9.60;99.90;;;;;;4984586;28;20070;-64
2023/04/24 03:14:15;;;;;;;9.23;8.32;;;9.60;99.90;;;;;;4984191;28;20056;-70
2023/04/24 03:16:41;;;;;;;9.20;8.40;;;9.50;99.90;;;;;;4984651;28;20529;-68
2023/04/24 03:19:07;;;;;;;8.50;7.70;;;9.50;99.90;;;;;;4984751;28;20193;-63
2023/04/24 03:21:33;;;;;;;8.50;7.70;;;9.60;99.90;;;;;;4983786;28;20042;-63
2023/04/24 03:23:58;;;;;;;9.18;8.18;;;9.60;99.90;;;;;;4984639;28;20046;-63
2023/04/24 03:26:24;;;;;;;8.98;8.18;;;9.60;99.90;;;;;;4984523;28;20064;-65
2023/04/24 03:28:50;;;;;;;9.18;8.32;;;9.60;99.90;;;;;;4984805;28;20461;-58
2023/04/24 03:31:16;;;;;;;8.93;8.10;;;9.60;99.90;;;;;;4983684;28;20048;-67
2023/04/24 03:33:42;;;;;;;9.18;8.27;;;9.50;99.90;;;;;;4984138;28;20409;-66
2023/04/24 03:36:07;;;;;;;8.77;7.88;;;9.50;99.90;;;;;;4984269;28;20046;-61
2023/04/24 03:38:33;;;;;;;9.60;7.88;;;9.50;99.90;;;;;;4983724;28;20038;-67
2023/04/24 03:40:59;;;;;;;9.85;8.82;;;9.50;99.90;;;;;;4984002;28;20042;-62
2023/04/24 03:43:24;;;;;;;9.70;8.15;;;9.40;99.90;;;;;;4982881;28;20041;-64
2023/04/24 03:45:50;;;;;;;9.23;8.32;;;9.40;99.90;;;;;;4984270;28;20038;-68
2023/04/24 03:48:16;;;;;;;9.07;8.10;;;9.60;99.90;;;;;;4984122;28;20042;-65
2023/04/24 03:50:41;;;;;;;8.68;7.78;;;9.60;99.90;;;;;;4984050;28;20042;-66
2023/04/24 03:53:07;;;;;;;9.18;8.27;;;9.50;99.90;;;;;;4983561;28;20045;-69
2023/04/24 03:55:33;;;;;;;9.32;8.25;;;9.60;99.90;;;;;;4983545;28;20092;-62
2023/04/24 03:57:59;;;;;;;8.80;8.00;;;9.50;99.90;;;;;;4983764;28;20497;-67
2023/04/24 04:00:25;;;;;;;9.38;8.40;;;9.60;99.90;;;;;;4984105;28;20050;-71
2023/04/24 04:02:51;;;;;;;9.23;8.32;;;9.50;99.90;;;;;;4983664;28;20047;-66
2023/04/24 04:05:17;;;;;;;9.50;8.60;;;9.50;99.90;;;;;;4983313;28;20043;-54
2023/04/24 04:07:42;;;;;;;10.70;8.60;;;9.50;99.90;;;;;;4982804;28;20050;-66
2023/04/24 04:10:08;;;;;;;9.23;8.32;;;9.50;99.90;;;;;;4983730;28;20053;-66
2023/04/24 04:12:34;;;;;;;10.95;9.18;;;9.50;99.90;;;;;;4983102;28;20042;-59
2023/04/24 04:15:00;;;;;;;10.52;8.95;;;9.60;99.90;;;;;;4983691;28;20041;-70
2023/04/24 04:17:25;;;;;;;11.00;9.90;;;9.50;99.90;;;;;;4982067;28;20674;-67
2023/04/24 04:19:51;;;;;;;9.48;8.43;;;9.40;99.90;;;;;;4983520;28;20482;-65
2023/04/24 04:22:17;;;;;;;11.43;9.15;;;9.70;99.90;;;;;;4980753;28;20039;-70
2023/04/24 04:24:42;;;;;;;10.02;9.00;;;9.40;99.90;;;;;;4983277;28;20049;-68
2023/04/24 04:27:08;;;;;;;9.93;9.00;;;9.40;99.90;;;;;;4983289;28;20073;-69
2023/04/24 04:29:35;;;;;;;10.27;9.27;;;9.40;99.90;;;;;;4982989;28;20045;-67
2023/04/24 04:32:02;;;;;;;10.10;8.95;;;9.40;99.90;;;;;;4983673;28;20144;-67
2023/04/24 04:34:27;;;;;;;10.60;9.30;;;9.40;99.90;;;;;;4983047;28;20082;-62
2023/04/24 04:36:53;;;;;;;8.88;7.97;;;9.40;99.90;;;;;;4982273;28;20077;-63
2023/04/24 04:39:19;;;;;;;9.43;8.52;;;9.60;99.90;;;;;;4982961;28;20424;-62
2023/04/24 04:41:48;;;;;;;10.75;8.10;;;9.40;99.90;;;;;;4983012;28;20092;-60
2023/04/24 04:44:14;;;;;;;9.18;7.28;;;9.40;99.90;;;;;;4982890;28;20056;-63
2023/04/24 04:46:41;;;;;;;9.55;8.60;;;9.40;99.90;;;;;;4982431;28;20184;-61
2023/04/24 04:49:08;;;;;;;9.40;8.43;;;9.40;99.90;;;;;;4982786;28;20042;-66
2023/04/24 04:51:34;;;;;;;9.18;8.27;;;9.40;99.90;;;;;;4982475;28;20050;-71
2023/04/24 04:54:00;;;;;;;9.35;8.35;;;9.30;99.90;;;;;;4982686;28;20708;-67
2023/04/24 04:56:26;;;;;;;9.32;8.40;;;9.40;99.90;;;;;;4982691;28;20053;-71
2023/04/24 04:58:51;;;;;;;9.43;8.40;;;9.40;99.90;;;;;;4981451;28;20062;-72
2023/04/24 05:01:17;;;;;;;9.63;8.68;;;9.50;99.90;;;;;;4982526;28;20080;-65
2023/04/24 05:03:43;;;;;;;9.70;8.73;;;9.50;99.90;;;;;;4982368;28;20082;-72
2023/04/24 05:06:09;;;;;;;9.88;8.88;;;9.30;99.90;;;;;;4983133;28;20130;-72
2023/04/24 05:08:34;;;;;;;10.15;8.40;;;9.30;99.90;;;;;;4982143;28;20054;-71
2023/04/24 05:11:00;;;;;;;9.23;8.32;;;9.30;99.90;;;;;;4981990;28;20160;-68
2023/04/24 05:13:26;;;;;;;10.15;8.68;;;9.40;99.90;;;;;;4982465;28;20034;-63
2023/04/24 05:15:52;;;;;;;8.45;7.63;;;9.40;99.90;;;;;;4982648;28;20133;-71
2023/04/24 05:18:18;;;;;;;10.02;8.60;;;9.30;99.90;;;;;;4982023;28;20049;-51
2023/04/24 05:20:43;;;;;;;10.38;9.27;;;9.40;99.90;;;;;;4982356;28;20050;-73
2023/04/24 05:23:09;;;;;;;11.10;8.60;;;9.30;99.90;;;;;;4981781;28;20139;-72
2023/04/24 05:25:35;;;;;;;10.43;8.93;;;9.30;99.90;;;;;;4982765;28;20043;-65
2023/04/24 05:28:02;;;;;;;11.32;9.55;;;9.30;99.90;;;;;;4981786;28;20053;-70
2023/04/24 05:30:29;;;;;;;13.05;10.10;;;9.40;99.90;;;;;;4982508;28;20068;-68
2023/04/24 05:32:54;;;;;;;10.48;9.30;;;9.30;99.90;;;;;;4982558;28;20113;-70
2023/04/24 05:35:20;;;;;;;11.57;9.90;;;9.40;99.90;;;;;;4981758;28;20125;-70
2023/04/24 05:37:45;;;;;;;10.55;9.45;;;9.30;99.90;;;;;;4981532;28;20077;-68
2023/04/24 05:40:11;;;;;;;9.20;8.30;;;9.30;99.90;;;;;;4982129;28;20054;-71
2023/04/24 05:42:37;;;;;;;9.90;7.97;;;9.30;99.90;;;;;;4982249;28;20493;-70
2023/04/24 05:45:04;;;;;;;9.23;8.02;;;9.20;99.90;;;;;;4981796;28;20065;-68
2023/04/24 05:47:29;;;;;;;9.13;7.82;;;9.30;99.90;;;;;;4982271;28;20251;-67
2023/04/24 05:49:55;;;;;;;8.60;7.30;;;9.30;99.90;;;;;;4982277;28;20703;-69
2023/04/24 05:52:21;;;;;;;8.40;7.50;;;9.30;99.90;;;;;;4979786;28;20695;-65
2023/04/24 05:54:46;;;;;;;7.35;6.50;;;9.30;99.90;;;;;;4982323;28;20852;-69
2023/04/24 05:57:12;;;;;;;7.85;7.05;;;9.30;99.90;;;;;;4982960;28;20046;-67
2023/04/24 05:59:38;;;;;;;7.82;6.85;;;9.30;99.90;;;;;;4986189;28;20525;-67
2023/04/24 06:02:04;;;;;;;7.68;6.68;;;9.30;99.90;;;;;;4986167;28;20046;-67
2023/04/24 06:04:30;;;;;;;8.23;6.07;;;9.40;99.90;;;;;;4985793;28;20157;-55
2023/04/24 06:06:55;;;;;;;7.32;6.25;;;9.30;99.90;;;;;;4984910;28;20177;-67
2023/04/24 06:09:22;;;;;;;8.05;6.55;;;9.40;99.90;;;;;;4985578;28;20123;-68
2023/04/24 06:11:49;;;;;;;9.43;6.80;;;9.20;99.90;;;;;;4985761;28;20053;-68
2023/04/24 06:14:15;;;;;;;10.10;6.72;;;9.20;99.90;;;;;;4985936;28;20038;-67
2023/04/24 06:16:42;;;;;;;9.00;6.93;;;9.20;99.90;;;;;;4985616;28;20050;-70
2023/04/24 06:19:08;;;;;;;9.38;7.72;;;9.10;99.90;;;;;;4968476;28;20046;-70
2023/04/24 06:21:34;;;;;;;9.85;7.32;;;9.20;99.90;;;;;;4984748;28;20117;-71
2023/04/24 06:23:59;;;;;;;9.05;7.18;;;9.30;99.90;;;;;;4985750;28;20153;-57
2023/04/24 06:26:26;;;;;;;9.23;7.65;;;9.30;99.90;;;;;;4985212;28;20041;-69
2023/04/24 06:28:53;;;;;;;9.10;7.40;;;9.20;99.90;;;;;;4984366;28;20084;-69
2023/04/24 06:31:20;;;;;;;8.27;7.03;;;9.30;99.90;;;;;;4984093;28;20049;-70
2023/04/24 06:33:45;;;;;;;9.05;7.25;;;9.30;99.90;;;;;;4984614;28;20419;-67
2023/04/24 06:36:12;;;;;;;7.60;6.22;;;9.30;99.90;;;;;;4988526;28;20049;-64
2023/04/24 06:38:38;;;;;;;8.82;6.72;;;9.30;99.90;;;;;;5004053;28;20041;-64
2023/04/24 06:41:05;;;;;;;7.78;6.55;;;9.30;99.90;;;;;;5004056;28;20056;-67
2023/04/24 06:43:31;;;;;;;8.73;6.85;;;9.30;99.90;;;;;;5004780;28;20081;-59
2023/04/24 06:45:57;;;;;;;8.25;7.22;;;9.30;99.90;;;;;;5004783;28;20117;-66
2023/04/24 06:48:24;;;;;;;8.70;7.10;;;9.30;99.90;;;;;;5004749;28;20044;-65
2023/04/24 06:50:49;;;;;;;9.25;7.97;;;9.20;99.90;;;;;;5004775;28;20053;-57
2023/04/24 06:53:15;;;;;;;8.48;7.18;;;9.30;99.90;;;;;;5004003;28;20042;-59
2023/04/24 06:55:41;;;;;;;9.70;7.88;;;9.30;99.90;;;;;;5004856;28;20050;-59
2023/04/24 06:58:07;;;;;;;10.07;7.82;;;9.20;99.90;;;;;;5003980;28;20042;-60
2023/04/24 07:00:33;;;;;;;8.73;7.63;;;9.30;99.90;;;;;;5004991;28;20120;-60
2023/04/24 07:02:59;;;;;;;8.88;7.78;;;9.40;99.90;;;;;;5004579;28;20488;-62
2023/04/24 07:05:25;;;;;;;8.80;7.85;;;9.20;99.90;;;;;;5003757;28;20053;-64
2023/04/24 07:07:51;;;;;;;8.43;7.05;;;9.30;99.90;;;;;;5003247;28;20132;-60
2023/04/24 07:10:17;;;;;;;8.52;6.88;;;9.30;99.90;;;;;;5002896;28;20061;-58
2023/04/24 07:12:43;;;;;;;9.10;6.95;;;9.30;99.90;;;;;;5004849;28;20128;-62
2023/04/24 07:15:10;;;;;;;8.68;6.68;;;9.20;99.90;;;;;;5004033;28;20054;-61
2023/04/24 07:17:38;;;;;;;7.60;6.05;;;9.20;99.90;;;;;;5004129;28;20042;-63
2023/04/24 07:20:05;;;;;;;7.93;6.43;;;9.30;99.90;;;;;;5004352;28;20141;-68
2023/04/24 07:22:31;;;;;;;7.40;5.38;;;9.30;99.90;;;;;;5002675;28;20246;-67
2023/04/24 07:24:56;;;;;;;7.00;5.72;;;9.30;99.90;;;;;;5003931;28;20481;-68
2023/04/24 07:27:22;;;;;;;7.10;5.47;;;9.40;99.90;;;;;;5003773;28;20044;-68
2023/04/24 07:29:47;;;;;;;7.57;5.40;;;9.50;99.90;;;;;;5003649;28;20558;-68
2023/04/24 07:32:13;;;;;;;6.32;5.60;;;9.60;99.90;;;;;;5002879;28;20076;-60
2023/04/24 07:34:39;;;;;;;6.88;5.65;;;9.30;99.90;;;;;;5003386;28;20061;-69
2023/04/24 07:37:05;;;;;;;7.50;6.05;;;9.30;99.90;;;;;;5001453;28;20128;-68
2023/04/24 07:39:31;;;;;;;5.88;5.22;;;9.30;99.90;;;;;;5003088;28;20457;-68
2023/04/24 07:41:58;;;;;;;7.30;5.60;;;9.30;99.90;;;;;;5004083;28;20060;-67
2023/04/24 07:44:24;;;;;;;6.70;5.40;;;9.40;99.90;;;;;;5005125;28;20038;-69
2023/04/24 07:46:50;;;;;;;6.13;5.05;;;9.30;99.90;;;;;;5003003;28;20037;-69
2023/04/24 07:49:16;;;;;;;7.03;5.22;;;9.40;99.90;;;;;;5004789;28;20155;-60
2023/04/24 07:51:41;;;;;;;6.13;4.88;;;9.50;99.90;;;;;;5002934;28;20064;-70
2023/04/24 07:54:07;;;;;;;7.95;6.30;;;9.50;99.90;;;;;;5003456;28;20598;-71
2023/04/24 07:56:33;;;;;;;11.20;6.72;;;9.60;99.90;;;;;;5003031;28;20229;-63
2023/04/24 07:59:00;;;;;;;9.38;7.10;;;9.70;99.90;;;;;;5001581;28;20525;-71
2023/04/24 08:01:26;;;;;;;8.98;7.20;;;9.70;99.90;;;;;;5003267;28;20053;-69
2023/04/24 08:03:52;;;;;;;9.27;7.15;;;9.70;99.90;;;;;;5002400;28;20042;-68
2023/04/24 08:06:18;;;;;;;9.20;6.82;;;9.80;99.90;;;;;;5002285;28;20065;-69
2023/04/24 08:08:43;;;;;;;7.60;6.55;;;9.80;99.90;;;;;;5003329;28;20609;-70
2023/04/24 08:11:09;;;;;;;8.52;7.10;;;9.90;99.90;;;;;;5002010;28;20049;-65
2023/04/24 08:13:35;;;;;;;9.32;7.40;;;9.90;99.90;;;;;;5003144;28;20042;-69
2023/04/24 08:16:00;;;;;;;8.93;7.22;;;9.90;99.90;;;;;;5002987;28;20046;-66
2023/04/24 08:18:27;;;;;;;10.27;6.82;;;10.00;99.90;;;;;;5001323;28;20603;-59
2023/04/24 08:20:52;;;;;;;9.18;6.50;;;9.90;99.90;;;;;;5001189;28;20489;-66
2023/04/24 08:23:18;;;;;;;8.75;7.00;;;10.00;99.90;;;;;;5002706;28;20029;-69
2023/04/24 08:25:44;;;;;;;8.93;6.82;;;10.00;99.90;;;;;;5003312;28;20096;-65
2023/04/24 08:28:10;;;;;;;8.77;5.85;;;10.10;99.90;;;;;;5002458;28;20479;-66
2023/04/24 08:30:36;;;;;;;6.50;5.55;;;10.00;99.90;;;;;;5002747;28;20068;-64
2023/04/24 08:33:02;;;;;;;7.40;5.03;;;10.00;99.90;;;;;;5002585;28;20406;-68
2023/04/24 08:35:28;;;;;;;5.95;3.88;;;10.00;99.90;;;;;;5002056;28;20191;-70
2023/04/24 08:37:53;;;;;;;6.38;3.67;;;10.00;99.90;;;;;;5001289;28;20494;-68
2023/04/24 08:40:28;;;;;;;6.22;3.40;;;10.00;99.90;;;;;;5002520;28;20124;-72
2023/04/24 08:42:58;;;;;;;5.70;2.90;;;10.00;99.90;;;;;;5002500;28;20428;-60
2023/04/24 08:45:24;;;;;;;7.30;3.10;;;10.00;99.90;;;;;;5002659;28;20471;-69
2023/04/24 08:47:52;;;;;;;7.30;3.45;;;10.10;99.90;;;;;;5001050;28;20123;-66
2023/04/24 08:50:17;;;;;;;8.90;4.03;;;10.00;99.90;;;;;;5002648;28;20038;-68
2023/04/24 08:52:43;;;;;;;7.13;4.38;;;10.00;99.90;;;;;;4999948;28;20511;-66
2023/04/24 08:55:09;;;;;;;8.18;4.65;;;10.00;99.90;;;;;;5002515;28;20076;-70
2023/04/24 08:57:38;;;;;;;9.48;4.70;;;9.90;99.90;;;;;;5009940;28;20037;-70
2023/04/24 09:00:04;;;;;;;8.70;5.20;;;9.90;99.90;;;;;;5015634;28;20060;-70
2023/04/24 09:02:31;;;;;;;8.52;5.75;;;9.80;99.90;;;;;;5021720;28;20053;-69
2023/04/24 09:04:57;;;;;;;10.63;6.13;;;9.90;99.90;;;;;;5022061;28;20088;-63
2023/04/24 09:07:25;;;;;;;12.57;6.78;;;9.80;99.90;;;;;;5020680;28;20139;-66
2023/04/24 09:09:52;;;;;;;16.38;9.65;;;9.90;99.90;;;;;;5022081;28;20088;-62
2023/04/24 09:12:18;;;;;;;17.27;11.38;;;9.90;99.90;;;;;;5022685;28;20041;-62
2023/04/24 09:14:45;;;;;;;18.65;12.10;;;9.70;99.90;;;;;;5021699;28;20042;-64
2023/04/24 09:17:11;;;;;;;28.48;15.82;;;9.60;99.90;;;;;;5021519;28;20044;-67
2023/04/24 09:19:37;;;;;;;25.95;15.77;;;9.60;99.90;;;;;;5020364;28;20527;-67
2023/04/24 09:22:07;;;;;;;22.13;15.95;;;9.60;99.90;;;;;;5021072;28;20084;-71
2023/04/24 09:24:34;;;;;;;25.15;15.85;;;9.60;99.90;;;;;;5021120;28;20052;-67
2023/04/24 09:27:01;;;;;;;25.45;16.95;;;9.50;99.90;;;;;;5021916;28;20366;-69
2023/04/24 09:29:27;;;;;;;24.92;16.42;;;9.50;99.90;;;;;;5020533;28;20041;-68
2023/04/24 09:31:53;;;;;;;22.67;15.10;;;9.50;99.90;;;;;;5021182;28;20492;-71
2023/04/24 09:34:23;;;;;;;22.15;14.18;;;9.40;99.90;;;;;;5026028;28;20044;-58
2023/04/24 09:36:49;;;;;;;26.45;14.95;;;9.40;99.90;;;;;;5024490;28;20416;-62
2023/04/24 09:39:16;;;;;;;25.30;16.27;;;9.30;99.90;;;;;;5024035;28;20142;-61
2023/04/24 09:41:47;;;;;;;24.50;15.43;;;9.30;99.90;;;;;;5026245;28;20056;-68
2023/04/24 09:44:15;;;;;;;24.92;15.88;;;9.30;99.90;;;;;;5026225;28;20167;-70
2023/04/24 09:46:52;;;;;;;26.75;16.52;;;9.20;99.90;;;;;;5026912;28;20113;-63
2023/04/24 09:49:24;;;;;;;26.85;16.83;;;9.30;99.90;;;;;;5027562;28;20041;-66
2023/04/24 09:51:49;;;;;;;23.73;16.17;;;9.30;99.90;;;;;;5027393;28;20045;-69
2023/04/24 09:54:17;;;;;;;24.58;16.48;;;9.30;99.90;;;;;;5027233;28;20045;-67
2023/04/24 09:56:46;;;;;;;24.48;16.90;;;9.20;99.90;;;;;;5028144;28;20049;-70
2023/04/24 09:59:13;;;;;;;26.23;17.50;;;9.20;99.90;;;;;;5027942;28;20145;-71
2023/04/24 10:01:42;;;;;;;23.13;17.10;;;9.20;99.90;;;;;;5027400;28;20047;-62
2023/04/24 10:04:17;;;;;;;24.15;16.15;;;9.20;99.90;;;;;;5027982;28;20042;-69
2023/04/24 10:06:43;;;;;;;22.85;16.33;;;9.20;99.90;;;;;;5025012;28;20107;-72
2023/04/24 10:09:11;;;;;;;23.95;16.98;;;9.20;99.90;;;;;;5025211;28;20144;-68
2023/04/24 10:11:37;;;;;;;22.70;16.05;;;9.20;99.90;;;;;;5027809;28;20049;-65
2023/04/24 10:14:04;;;;;;;22.88;14.95;;;9.20;99.90;;;;;;5026609;28;20084;-62
2023/04/24 10:16:31;;;;;;;22.52;14.32;;;9.30;99.90;;;;;;5025730;28;20053;-70
2023/04/24 10:18:59;;;;;;;21.55;13.70;;;9.20;99.90;;;;;;5026764;28;20045;-69
2023/04/24 10:21:26;;;;;;;23.17;13.85;;;9.20;99.90;;;;;;5026529;28;20088;-64
2023/04/24 10:23:52;;;;;;;22.33;13.93;;;9.20;99.90;;;;;;5026953;28;20045;-71
2023/04/24 10:26:19;;;;;;;18.95;13.93;;;9.20;99.90;;;;;;5027634;28;20420;-70
2023/04/24 10:28:46;;;;;;;16.83;13.35;;;9.20;99.90;;;;;;5026935;28;20049;-63
2023/04/24 10:31:13;;;;;;;20.08;13.52;;;9.20;99.90;;;;;;5025255;28;20037;-67
2023/04/24 10:33:42;;;;;;;20.58;12.80;;;9.20;99.90;;;;;;5027559;28;20413;-63
2023/04/24 10:36:10;;;;;;;19.75;11.85;;;9.20;99.90;;;;;;5026238;28;20046;-56
2023/04/24 10:38:40;;;;;;;14.65;10.60;;;9.10;99.90;;;;;;5025648;28;20171;-62
2023/04/24 10:41:15;;;;;;;18.45;10.32;;;9.20;99.90;;;;;;5027689;28;20041;-65
2023/04/24 10:43:41;;;;;;;16.75;10.45;;;9.10;99.90;;;;;;5004289;28;20447;-64
2023/04/24 10:46:09;;;;;;;20.13;10.50;;;9.00;99.90;;;;;;5006563;28;20050;-63
2023/04/24 10:48:35;;;;;;;20.20;10.82;;;9.00;99.90;;;;;;5007325;28;20042;-65
2023/04/24 10:51:01;;;;;;;23.05;10.73;;;8.90;99.90;;;;;;5006953;28;20060;-68
2023/04/24 10:53:29;;;;;;;19.25;10.90;;;8.90;99.90;;;;;;5007268;28;20034;-66
2023/04/24 10:56:01;;;;;;;16.75;9.55;;;8.90;99.90;;;;;;5007474;28;20038;-61
2023/04/24 10:58:44;;;;;;;20.40;10.32;;;8.90;99.90;;;;;;5006889;28;20038;-66
2023/04/24 11:01:32;;;;;;;18.33;8.77;;;9.00;99.90;;;;;;5007427;28;20073;-66
2023/04/24 11:04:03;;;;;;;23.13;9.13;;;9.00;99.90;;;;;;5027599;28;20033;-59
2023/04/24 11:06:36;;;;;;;21.77;9.48;;;9.00;99.90;;;;;;5025972;28;20289;-55
2023/04/24 11:09:07;;;;;;;16.20;8.80;;;9.20;99.90;;;;;;4988148;28;20038;-70
2023/04/24 11:11:34;;;;;;;16.15;7.10;;;9.10;99.90;;;;;;4987319;28;20085;-58
2023/04/24 11:14:00;;;;;;;12.68;6.18;;;9.20;99.90;;;;;;4986343;28;20130;-66
2023/04/24 11:16:28;;;;;;;13.73;5.75;;;9.50;99.90;;;;;;4987466;28;20125;-61
2023/04/24 11:19:16;;;;;;;9.57;5.18;;;9.20;99.90;;;;;;4988128;28;20085;-70
2023/04/24 11:21:43;;;;;;;11.18;4.97;;;9.30;99.90;;;;;;4986891;28;20042;-60
2023/04/24 11:24:26;;;;;;;7.88;4.35;;;9.30;99.90;;;;;;4987488;28;20509;-51
2023/04/24 11:26:54;;;;;;;12.48;5.20;;;9.30;99.90;;;;;;4987844;28;20722;-54
2023/04/24 11:29:21;;;;;;;11.98;5.07;;;9.30;99.90;;;;;;4987161;28;20042;-61
2023/04/24 11:31:51;;;;;;;8.55;4.78;;;9.40;99.90;;;;;;4986895;28;20130;-55
2023/04/24 11:34:18;;;;;;;9.43;4.70;;;9.50;99.90;;;;;;4987306;28;20042;-63
2023/04/24 11:36:45;;;;;;;11.27;4.95;;;9.40;99.90;;;;;;4986403;28;20042;-61
2023/04/24 11:39:11;;;;;;;9.07;5.03;;;9.50;99.90;;;;;;4986516;28;20054;-59
2023/04/24 11:41:37;;;;;;;10.50;5.55;;;9.60;99.90;;;;;;4987400;28;20462;-62
2023/04/24 11:44:05;;;;;;;11.35;4.43;;;9.60;99.90;;;;;;4986568;28;20047;-63
2023/04/24 11:46:31;;;;;;;10.93;4.28;;;9.60;99.90;;;;;;4986887;28;20045;-55
2023/04/24 11:48:58;;;;;;;8.00;3.85;;;9.70;99.90;;;;;;4987228;28;20046;-53
2023/04/24 11:51:26;;;;;;;7.25;3.58;;;9.70;99.90;;;;;;4987123;28;20429;-53
2023/04/24 11:53:55;;;;;;;10.82;4.13;;;9.70;99.90;;;;;;4987106;28;20089;-59
2023/04/24 11:56:22;;;;;;;8.32;3.38;;;9.70;99.90;;;;;;4986422;28;20083;-59
2023/04/24 11:58:48;;;;;;;8.48;3.10;;;9.70;99.90;;;;;;4986338;28;20148;-61
2023/04/24 12:01:14;;;;;;;7.28;2.83;;;9.60;99.90;;;;;;4986495;28;20074;-63
2023/04/24 12:03:43;;;;;;;7.88;2.90;;;9.60;99.90;;;;;;4984536;28;20050;-59
2023/04/24 12:06:11;;;;;;;10.20;3.22;;;9.60;99.90;;;;;;4984799;28;20062;-63
2023/04/24 12:08:37;;;;;;;19.10;3.45;;;9.50;99.90;;;;;;5021105;28;20081;-62
2023/04/24 12:11:06;;;;;;;8.27;3.25;;;9.60;99.90;;;;;;5025072;28;20053;-59
2023/04/24 12:13:33;;;;;;;9.10;3.47;;;9.50;99.90;;;;;;5025849;28;20412;-64
2023/04/24 12:15:59;;;;;;;11.00;3.78;;;9.50;99.90;;;;;;5026069;28;20046;-62
2023/04/24 12:18:25;;;;;;;12.10;3.97;;;9.50;99.90;;;;;;5025413;28;20045;-58
2023/04/24 12:20:51;;;;;;;10.80;2.92;;;9.60;99.90;;;;;;5024323;28;20045;-59
2023/04/24 12:23:34;;;;;;;13.50;3.45;;;9.40;99.90;;;;;;5025571;28;20096;-65
2023/04/24 12:26:01;;;;;;;9.88;3.15;;;9.40;99.90;;;;;;5024846;28;20041;-53
2023/04/24 12:28:35;;;;;;;10.98;4.07;;;9.40;99.90;;;;;;5025886;28;20046;-59
2023/04/24 12:31:01;;;;;;;10.55;2.72;;;9.40;99.90;;;;;;5024892;28;20049;-64
2023/04/24 12:33:27;;;;;;;8.02;2.90;;;9.40;99.90;;;;;;5025843;28;20080;-59
2023/04/24 12:35:53;;;;;;;8.38;2.45;;;9.60;99.90;;;;;;5024733;28;20508;-63
2023/04/24 12:38:25;;;;;;;11.85;3.00;;;9.60;99.90;;;;;;5025203;28;20053;-59
2023/04/24 12:41:05;;;;;;;6.22;2.53;;;9.70;99.90;;;;;;5025098;28;20045;-55
2023/04/24 12:43:31;;;;;;;6.53;2.22;;;9.60;99.90;;;;;;5023076;28;20046;-51
2023/04/24 12:45:57;;;;;;;8.23;2.60;;;9.60;99.90;;;;;;5024564;28;20397;-59
2023/04/24 12:48:23;;;;;;;10.13;2.97;;;9.50;99.90;;;;;;5024531;28;20053;-55